Time;durP1;ratioP1;P1;durP2;ratioP2;P2;SDS_P1;SDS_P2;PMS_P1;PMS_P2;Temp;Humidity;BMP_temperature;BMP_pressure;BME280_temperature;BME280_humidity;BME280_pressure;Samples;Min_cycle;Max_cycle;Signal;HPM_P1;HPM_P2
2022/07/03 00:02:13;;;;;;;17.92;9.43;;;;;;;22.04;75.45;99395.45;1708603;84;20952;-90
2022/07/03 00:04:40;;;;;;;18.67;9.90;;;;;;;21.99;74.20;99398.41;1709699;84;21024;-90
2022/07/03 00:07:08;;;;;;;13.80;8.93;;;;;;;21.94;74.82;99394.38;1709672;83;20955;-90
2022/07/03 00:09:35;;;;;;;16.15;8.95;;;;;;;21.88;73.74;99394.30;1709531;84;21025;-90
2022/07/03 00:12:01;;;;;;;14.87;9.43;;;;;;;21.78;73.16;99398.04;1709349;83;20992;-90
2022/07/03 00:14:28;;;;;;;13.35;9.00;;;;;;;21.72;75.30;99393.16;1710169;84;20988;-91
2022/07/03 00:16:55;;;;;;;16.57;9.23;;;;;;;21.70;76.68;99396.87;1710620;84;21017;-91
2022/07/03 00:19:22;;;;;;;16.30;9.80;;;;;;;21.67;76.58;99387.83;1710742;84;20995;-90
2022/07/03 00:21:56;;;;;;;15.20;8.80;;;;;;;21.65;76.04;99384.79;1710534;84;20959;-91
2022/07/03 00:24:48;;;;;;;13.53;8.20;;;;;;;21.66;76.09;99379.02;1710551;84;21035;-91
2022/07/03 00:27:19;;;;;;;13.48;8.08;;;;;;;21.67;76.38;99376.77;1710613;84;21079;-90
2022/07/03 00:29:47;;;;;;;14.05;7.62;;;;;;;21.68;75.80;99381.57;1710571;84;21006;-91
2022/07/03 00:32:18;;;;;;;13.95;8.60;;;;;;;21.67;75.90;99389.15;1710589;83;21022;-91
2022/07/03 00:34:50;;;;;;;13.78;8.48;;;;;;;21.66;76.82;99381.66;1710230;83;21032;-91
2022/07/03 00:37:16;;;;;;;18.17;9.20;;;;;;;21.60;77.68;99387.36;1710472;83;21015;-90
2022/07/03 00:39:44;;;;;;;16.12;8.60;;;;;;;21.56;77.66;99393.33;1682017;85;21047;-91
2022/07/03 00:42:12;;;;;;;20.40;8.73;;;;;;;21.57;77.76;99396.84;1682166;85;21023;-90
2022/07/03 00:44:54;;;;;;;16.73;8.33;;;;;;;21.56;77.62;99389.36;1682099;85;21063;-91
2022/07/03 00:47:24;;;;;;;14.95;8.55;;;;;;;21.56;78.17;99382.74;1682201;85;20967;-91
2022/07/03 00:49:59;;;;;;;15.15;8.33;;;;;;;21.58;77.65;99383.48;1710434;83;21071;-90
2022/07/03 00:52:29;;;;;;;14.33;8.68;;;;;;;21.58;77.60;99382.65;1723963;83;21064;-91
2022/07/03 00:54:58;;;;;;;14.65;8.25;;;;;;;21.58;77.58;99385.30;1716330;83;21044;-91
2022/07/03 00:57:29;;;;;;;12.13;8.00;;;;;;;21.60;77.08;99383.39;1715920;84;21012;-91
2022/07/03 00:59:57;;;;;;;15.50;9.05;;;;;;;21.60;77.44;99387.36;1701490;83;20983;-89
2022/07/03 01:02:57;;;;;;;20.20;9.00;;;;;;;21.59;77.20;99381.23;1721160;83;20980;-91
2022/07/03 01:05:40;;;;;;;12.35;7.65;;;;;;;21.58;77.14;99378.69;1715257;84;21012;-89
2022/07/03 01:08:39;;;;;;;10.73;6.17;;;;;;;21.57;77.09;99378.33;1715990;84;21008;-91
2022/07/03 01:11:29;;;;;;;13.18;6.33;;;;;;;21.52;75.74;99373.31;1719155;83;20964;-91
2022/07/03 01:14:30;;;;;;;11.45;6.78;;;;;;;21.45;77.48;99378.66;1724151;83;21007;-91
2022/07/03 01:17:07;;;;;;;12.03;6.35;;;;;;;21.38;76.42;99371.55;1702259;83;20980;-91
2022/07/03 01:19:46;;;;;;;9.08;6.25;;;;;;;21.36;75.96;99370.80;1703737;83;21038;-91
2022/07/03 01:22:36;;;;;;;13.75;6.45;;;;;;;21.24;76.14;99375.08;1724063;83;20964;-91
2022/07/03 01:25:24;;;;;;;10.20;6.58;;;;;;;21.19;75.96;99380.32;1724169;83;20988;-91
2022/07/03 01:28:14;;;;;;;17.20;7.25;;;;;;;21.14;76.06;99374.47;1695435;83;20991;-91
2022/07/03 01:30:51;;;;;;;12.60;6.12;;;;;;;21.04;76.19;99372.89;1695539;83;21008;-92
2022/07/03 01:33:33;;;;;;;11.28;6.62;;;;;;;20.97;76.67;99369.80;1723256;83;21472;-91
2022/07/03 01:36:06;;;;;;;9.95;5.78;;;;;;;20.91;76.21;99379.44;1717278;83;21015;-90
2022/07/03 01:38:40;;;;;;;18.48;6.62;;;;;;;20.85;76.22;99374.55;1716260;80;20997;-91
2022/07/03 01:41:09;;;;;;;10.15;6.37;;;;;;;20.79;77.43;99377.09;1716235;83;21013;-90
2022/07/03 01:43:48;;;;;;;11.12;6.30;;;;;;;20.75;77.38;99366.34;1716303;84;21129;-91
2022/07/03 01:46:21;;;;;;;12.70;6.90;;;;;;;20.75;76.77;99375.59;1716262;84;21116;-91
2022/07/03 01:48:49;;;;;;;9.73;5.78;;;;;;;20.75;77.34;99372.95;1716362;83;20988;-91
2022/07/03 01:51:17;;;;;;;11.30;6.00;;;;;;;20.76;77.06;99374.63;1709983;84;21066;-90
2022/07/03 01:53:47;;;;;;;10.10;5.47;;;;;;;20.73;77.55;99372.20;1705073;84;21011;-90
2022/07/03 01:56:16;;;;;;;12.68;5.70;;;;;;;20.76;77.28;99381.72;1705627;82;20983;-91
2022/07/03 01:58:43;;;;;;;9.65;5.58;;;;;;;20.70;77.33;99380.78;1710650;83;21022;-91
2022/07/03 02:01:27;;;;;;;10.40;6.20;;;;;;;20.70;77.14;99382.10;1710444;83;21020;-90
2022/07/03 02:04:11;;;;;;;11.73;5.75;;;;;;;20.69;77.48;99379.94;1707042;84;20972;-91
2022/07/03 02:06:46;;;;;;;14.07;6.33;;;;;;;20.70;77.88;99381.63;1710614;84;20995;-91
2022/07/03 02:09:17;;;;;;;9.00;5.58;;;;;;;20.72;77.13;99385.02;1710554;84;20972;-90
2022/07/03 02:11:46;;;;;;;10.15;5.55;;;;;;;20.65;77.59;99384.56;1687533;84;20998;-90
2022/07/03 02:14:24;;;;;;;14.05;6.03;;;;;;;20.67;77.79;99388.41;1677037;82;20995;-91
2022/07/03 02:17:10;;;;;;;11.65;5.72;;;;;;;20.68;77.85;99379.55;1662415;82;22804;-81
2022/07/03 02:20:10;;;;;;;9.68;6.03;;;;;;;20.64;78.42;99378.88;1677789;82;21556;-85
2022/07/03 02:22:45;;;;;;;12.15;5.97;;;;;;;20.63;78.43;99376.33;1681614;81;21053;-88
2022/07/03 02:32:00;;;;;;;9.23;5.67;;;;;;;20.52;79.17;99379.62;1637469;82;21136;-89
2022/07/03 02:34:28;;;;;;;10.15;5.72;;;;;;;20.53;79.04;99376.50;1688073;85;21060;-90
2022/07/03 02:40:17;;;;;;;10.32;5.35;;;;;;;20.52;78.96;99378.78;1674805;85;21127;-91
2022/07/03 02:43:05;;;;;;;11.83;5.42;;;;;;;20.54;79.46;99369.80;1708506;82;21063;-91
2022/07/03 02:48:55;;;;;;;11.73;6.12;;;;;;;20.56;78.63;99369.72;1663676;84;21597;-91
2022/07/03 02:51:23;;;;;;;12.45;6.10;;;;;;;20.54;78.93;99363.68;1674153;86;21041;-90
2022/07/03 02:54:01;;;;;;;11.48;5.60;;;;;;;20.51;78.26;99376.58;1679824;85;21054;-90
2022/07/03 02:56:58;;;;;;;8.40;5.92;;;;;;;20.52;79.63;99388.86;1703370;84;20994;-89
2022/07/03 03:02:52;;;;;;;10.23;5.80;;;;;;;20.57;79.12;99387.25;1636639;86;21162;-91
2022/07/03 03:08:48;;;;;;;14.30;6.90;;;;;;;20.58;78.04;99395.56;1692980;85;21088;-90
2022/07/03 03:11:24;;;;;;;;;;;;;;;20.57;77.66;99390.77;1697700;85;21041;-90
2022/07/03 03:13:56;;;;;;;9.53;5.60;;;;;;;20.55;79.12;99388.69;1716353;84;20148;-90
2022/07/03 03:16:23;;;;;;;10.72;6.58;;;;;;;20.59;78.01;99390.67;1761447;81;20979;-90
2022/07/03 03:18:50;;;;;;;14.98;6.70;;;;;;;20.63;79.41;99388.22;1714212;84;21030;-90
2022/07/03 03:21:19;;;;;;;11.08;6.62;;;;;;;20.64;78.10;99392.09;1746795;81;20981;-89
2022/07/03 03:23:48;;;;;;;13.58;6.97;;;;;;;20.69;79.17;99392.28;1714661;84;21002;-89
2022/07/03 03:26:23;;;;;;;11.08;7.08;;;;;;;20.72;78.31;99390.30;1709010;82;20968;-91
2022/07/03 03:28:51;;;;;;;10.63;6.72;;;;;;;20.77;78.10;99392.20;1709003;84;21039;-91
2022/07/03 03:31:19;;;;;;;12.80;7.17;;;;;;;20.83;77.93;99393.58;1747381;82;21002;-91
2022/07/03 03:33:49;;;;;;;16.20;6.60;;;;;;;20.85;77.26;99392.56;1714904;83;21040;-91
2022/07/03 03:36:19;;;;;;;10.90;6.62;;;;;;;20.81;76.96;99396.34;1706459;84;21005;-90
2022/07/03 03:38:47;;;;;;;11.30;6.78;;;;;;;20.76;76.90;99397.09;1725987;82;21059;-90
2022/07/03 03:41:14;;;;;;;9.43;6.05;;;;;;;20.71;76.69;99395.22;1776025;80;21018;-90
2022/07/03 03:43:41;;;;;;;11.90;6.47;;;;;;;20.66;76.83;99393.33;1761543;81;20990;-91
2022/07/03 03:46:08;;;;;;;8.93;5.95;;;;;;;20.69;76.80;99395.79;1715060;84;21052;-91
2022/07/03 03:48:35;;;;;;;10.68;5.78;;;;;;;20.69;76.79;99397.56;1747782;81;21005;-91
2022/07/03 03:51:03;;;;;;;9.08;5.83;;;;;;;20.64;77.22;99393.89;1713493;83;21044;-90
2022/07/03 03:53:30;;;;;;;14.13;5.33;;;;;;;20.63;76.37;99398.78;1659291;85;20984;-90
2022/07/03 03:56:04;;;;;;;8.90;5.55;;;;;;;20.65;78.09;99399.53;1686545;85;21095;-87
2022/07/03 03:58:33;;;;;;;11.30;5.78;;;;;;;20.64;76.43;99400.50;1686481;85;20976;-91
2022/07/03 04:01:03;;;;;;;17.48;5.85;;;;;;;20.63;77.74;99390.86;1686390;85;21036;-91
2022/07/03 04:03:31;;;;;;;12.47;6.35;;;;;;;20.63;77.13;99392.18;1718172;84;21049;-90
2022/07/03 04:05:58;;;;;;;10.48;5.90;;;;;;;20.66;77.54;99397.29;1686474;85;21028;-90
2022/07/03 04:08:26;;;;;;;10.70;6.20;;;;;;;20.68;78.17;99388.80;1686475;85;21080;-90
2022/07/03 04:10:53;;;;;;;10.32;6.50;;;;;;;20.74;77.78;99394.17;1686239;85;21044;-90
2022/07/03 04:13:20;;;;;;;11.20;6.30;;;;;;;20.79;78.48;99396.91;1686602;85;21008;-91
2022/07/03 04:15:48;;;;;;;11.70;6.30;;;;;;;20.86;77.89;99391.59;1686562;83;21061;-91
2022/07/03 04:18:15;;;;;;;10.48;6.15;;;;;;;20.91;77.66;99385.17;1718137;84;20967;-91
2022/07/03 04:20:42;;;;;;;13.15;6.37;;;;;;;20.95;76.96;99382.26;1711579;84;21065;-90
2022/07/03 04:23:09;;;;;;;11.15;6.22;;;;;;;20.98;76.97;99384.69;1747782;82;20959;-91
2022/07/03 04:25:36;;;;;;;8.60;5.83;;;;;;;21.06;77.35;99384.20;1709144;84;21007;-91
2022/07/03 04:28:03;;;;;;;12.93;6.22;;;;;;;21.17;77.29;99383.06;1747600;82;21014;-91
2022/07/03 04:30:30;;;;;;;9.53;5.67;;;;;;;21.28;76.85;99390.28;1709058;84;21046;-91
2022/07/03 04:32:56;;;;;;;11.60;5.65;;;;;;;21.33;76.66;99388.20;1712251;82;20998;-90
2022/07/03 04:35:23;;;;;;;13.75;5.95;;;;;;;21.43;76.77;99378.75;1734206;82;20963;-91
2022/07/03 04:37:50;;;;;;;12.90;6.65;;;;;;;21.57;76.85;99390.23;1747709;82;20981;-91
2022/07/03 04:40:17;;;;;;;10.30;6.28;;;;;;;21.66;76.56;99390.92;1747719;82;21026;-90
2022/07/03 04:42:44;;;;;;;12.78;6.62;;;;;;;21.72;76.20;99380.41;1747707;82;21013;-90
2022/07/03 04:45:11;;;;;;;9.60;6.45;;;;;;;21.80;75.94;99388.69;1747591;82;21003;-91
2022/07/03 04:47:38;;;;;;;9.58;6.37;;;;;;;21.89;75.12;99383.27;1747672;82;20955;-91
2022/07/03 04:50:06;;;;;;;10.85;6.87;;;;;;;21.92;75.42;99369.81;1747612;82;21041;-91
2022/07/03 04:52:33;;;;;;;10.32;6.95;;;;;;;21.99;74.79;99375.91;1747635;82;20987;-91
2022/07/03 04:55:00;;;;;;;14.35;6.55;;;;;;;22.03;75.17;99381.85;1747526;82;21046;-91
2022/07/03 04:57:28;;;;;;;9.50;6.30;;;;;;;22.12;74.77;99381.20;1714806;84;21102;-91
2022/07/03 04:59:54;;;;;;;11.63;6.60;;;;;;;22.19;74.64;99377.20;1747488;82;21046;-91
2022/07/03 05:02:21;;;;;;;11.78;6.33;;;;;;;22.27;74.37;99378.52;1747702;82;21055;-91
2022/07/03 05:04:48;;;;;;;9.35;6.35;;;;;;;22.28;73.96;99382.36;1747618;82;21054;-91
2022/07/03 05:07:14;;;;;;;11.60;5.92;;;;;;;22.33;73.96;99380.25;1718197;81;21050;-90
2022/07/03 05:09:41;;;;;;;10.38;6.35;;;;;;;22.40;73.58;99378.02;1716480;84;20998;-91
2022/07/03 05:12:08;;;;;;;8.45;5.83;;;;;;;22.44;73.37;99378.17;1684916;85;21002;-90
2022/07/03 05:14:35;;;;;;;8.43;5.12;;;;;;;22.48;73.36;99371.70;1716153;83;21011;-91
2022/07/03 05:17:02;;;;;;;8.60;5.12;;;;;;;22.57;73.29;99379.50;1684703;85;21046;-90
2022/07/03 05:19:29;;;;;;;8.25;5.22;;;;;;;22.60;73.02;99380.59;1716208;83;21014;-91
2022/07/03 05:21:55;;;;;;;9.95;5.70;;;;;;;22.65;73.19;99369.20;1684982;85;20975;-91
2022/07/03 05:24:23;;;;;;;10.80;5.15;;;;;;;22.68;73.26;99372.97;1716545;82;21046;-91
2022/07/03 05:26:51;;;;;;;14.18;5.83;;;;;;;22.78;73.23;99371.36;1703037;84;20983;-91
2022/07/03 05:29:17;;;;;;;7.53;5.25;;;;;;;22.88;72.90;99381.28;1747571;82;21055;-90
2022/07/03 05:31:44;;;;;;;11.97;5.90;;;;;;;22.96;72.87;99381.13;1747616;81;21018;-91
2022/07/03 05:34:11;;;;;;;9.10;5.65;;;;;;;23.10;72.71;99384.59;1714972;82;21066;-91
2022/07/03 05:36:38;;;;;;;10.18;6.40;;;;;;;23.21;72.46;99387.33;1747605;82;21070;-91
2022/07/03 05:41:50;;;;;;;8.80;6.10;;;;;;;23.37;71.73;99385.23;1697517;85;21001;-90
2022/07/03 05:44:17;;;;;;;9.75;6.30;;;;;;;23.51;71.41;99380.72;1692334;85;20989;-91
2022/07/03 05:46:44;;;;;;;10.35;6.35;;;;;;;23.59;70.58;99376.53;1727367;83;20999;-90
2022/07/03 05:49:11;;;;;;;9.53;6.72;;;;;;;23.60;70.63;99377.40;1689678;85;21497;-91
2022/07/03 05:51:38;;;;;;;11.73;7.03;;;;;;;23.67;70.16;99385.73;1698878;85;20977;-91
2022/07/03 05:54:04;;;;;;;12.43;7.15;;;;;;;23.67;70.16;99387.06;1696165;85;20993;-91
2022/07/03 05:56:31;;;;;;;11.95;7.17;;;;;;;23.73;70.18;99387.44;1699445;84;21052;-91
2022/07/03 05:58:58;;;;;;;12.82;7.30;;;;;;;23.84;69.69;99392.48;1696160;84;20983;-90
2022/07/03 06:01:25;;;;;;;10.43;7.10;;;;;;;23.88;69.84;99389.47;1697928;84;21003;-91
2022/07/03 06:03:51;;;;;;;11.93;6.87;;;;;;;23.97;69.74;99387.45;1699634;84;21044;-91
2022/07/03 06:06:18;;;;;;;14.68;6.78;;;;;;;24.08;69.07;99389.77;1701300;83;21079;-91
2022/07/03 06:08:44;;;;;;;11.73;6.47;;;;;;;24.14;69.05;99385.31;1697671;85;20993;-91
2022/07/03 06:11:11;;;;;;;9.68;5.55;;;;;;;24.24;68.78;99385.45;1671784;85;20996;-90
2022/07/03 06:13:38;;;;;;;10.45;5.87;;;;;;;24.29;68.34;99385.47;1671712;85;21051;-90
2022/07/03 06:16:05;;;;;;;10.75;6.12;;;;;;;24.31;67.79;99386.65;1671103;86;20984;-90
2022/07/03 06:18:32;;;;;;;9.43;6.00;;;;;;;24.35;67.80;99383.66;1695462;84;21033;-91
2022/07/03 06:20:58;;;;;;;8.63;5.75;;;;;;;24.43;67.87;99383.03;1698842;84;21020;-90
2022/07/03 06:23:25;;;;;;;9.23;5.65;;;;;;;24.52;67.44;99382.36;1696190;84;21024;-90
2022/07/03 06:25:52;;;;;;;6.42;4.55;;;;;;;24.57;66.75;99380.20;1699748;84;21027;-91
2022/07/03 06:28:18;;;;;;;8.10;4.80;;;;;;;24.59;66.76;99377.39;1696824;84;21016;-91
2022/07/03 06:30:45;;;;;;;8.95;4.62;;;;;;;24.67;66.72;99367.03;1673723;85;20985;-90
2022/07/03 06:33:12;;;;;;;7.50;4.30;;;;;;;24.78;66.81;99371.47;1668381;86;21457;-91
2022/07/03 06:35:38;;;;;;;9.95;5.00;;;;;;;24.88;66.66;99364.45;1689682;85;20981;-91
2022/07/03 06:38:05;;;;;;;11.30;5.78;;;;;;;25.00;66.74;99367.94;1691320;85;21558;-90
2022/07/03 06:40:31;;;;;;;9.88;5.40;;;;;;;25.04;66.53;99357.41;1743191;82;21018;-91
2022/07/03 06:42:58;;;;;;;6.80;4.90;;;;;;;25.13;65.96;99370.47;1752157;82;20929;-89
2022/07/03 06:45:25;;;;;;;7.72;4.42;;;;;;;25.18;65.17;99366.92;1740882;82;20980;-89
2022/07/03 06:47:52;;;;;;;6.62;4.58;;;;;;;25.27;65.15;99372.00;1693799;85;20989;-91
2022/07/03 06:50:19;;;;;;;7.17;4.90;;;;;;;25.38;64.48;99366.66;1729835;82;21527;-91
2022/07/03 06:52:45;;;;;;;8.15;4.55;;;;;;;25.46;63.80;99354.88;1729887;83;20984;-91
2022/07/03 06:55:12;;;;;;;7.42;4.53;;;;;;;25.50;63.45;99359.48;1730076;82;21006;-91
2022/07/03 06:57:39;;;;;;;8.50;4.78;;;;;;;25.52;62.67;99357.03;1729724;82;21055;-90
2022/07/03 07:00:07;;;;;;;7.87;4.72;;;;;;;25.44;61.30;99351.51;1693946;85;21016;-90
2022/07/03 07:02:34;;;;;;;6.97;4.45;;;;;;;25.50;62.09;99357.65;1703087;82;21029;-91
2022/07/03 07:05:00;;;;;;;8.88;5.10;;;;;;;25.51;62.30;99356.70;1706241;84;21047;-89
2022/07/03 07:07:27;;;;;;;6.42;4.22;;;;;;;25.55;62.34;99346.15;1711393;81;21051;-91
2022/07/03 07:09:54;;;;;;;7.45;4.05;;;;;;;25.63;61.80;99348.17;1709413;82;21062;-91
2022/07/03 07:12:20;;;;;;;8.68;4.75;;;;;;;25.66;61.69;99346.56;1681610;85;20987;-90
2022/07/03 07:14:47;;;;;;;8.88;5.15;;;;;;;25.77;61.94;99343.86;1681497;84;20983;-91
2022/07/03 07:17:14;;;;;;;7.90;4.80;;;;;;;25.89;61.64;99340.64;1681536;83;21086;-91
2022/07/03 07:19:40;;;;;;;6.67;4.45;;;;;;;25.98;61.54;99338.58;1681609;83;21007;-91
2022/07/03 07:22:07;;;;;;;7.45;4.97;;;;;;;26.12;61.08;99340.05;1681582;83;21034;-92
2022/07/03 07:24:34;;;;;;;7.90;4.55;;;;;;;26.17;60.88;99338.31;1681681;83;21011;-91
2022/07/03 07:27:01;;;;;;;8.08;4.83;;;;;;;26.25;60.48;99337.16;1660676;83;21643;-90
2022/07/03 07:29:28;;;;;;;8.58;4.92;;;;;;;26.35;60.02;99335.88;1700229;84;21027;-91
2022/07/03 07:31:55;;;;;;;9.23;4.87;;;;;;;26.45;58.73;99335.42;1700093;85;21055;-92
2022/07/03 07:34:22;;;;;;;7.53;4.62;;;;;;;26.43;58.24;99335.22;1691239;84;21159;-90
2022/07/03 07:36:49;;;;;;;7.58;4.83;;;;;;;26.43;57.92;99333.38;1715672;83;21035;-91
2022/07/03 07:39:16;;;;;;;9.90;4.83;;;;;;;26.50;57.55;99331.88;1715944;84;21018;-91
2022/07/03 07:41:43;;;;;;;7.00;5.20;;;;;;;26.59;57.18;99316.92;1715902;84;21057;-91
2022/07/03 07:44:10;;;;;;;8.58;5.03;;;;;;;26.68;57.90;99318.78;1712001;84;21007;-91
2022/07/03 07:46:37;;;;;;;11.45;5.37;;;;;;;26.79;58.11;99322.65;1715972;83;21006;-91
2022/07/03 07:49:04;;;;;;;8.75;5.67;;;;;;;26.92;58.27;99322.91;1690028;84;21038;-91
2022/07/03 07:51:31;;;;;;;8.10;4.67;;;;;;;27.05;58.12;99319.47;1715957;84;21051;-91
2022/07/03 07:57:00;;;;;;;12.43;5.22;;;;;;;27.30;57.72;99307.45;1677271;82;21165;-89
2022/07/03 07:59:27;;;;;;;7.58;4.80;;;;;;;27.41;56.98;99309.13;1681383;81;21163;-82
2022/07/03 08:07:52;;;;;;;10.18;5.05;;;;;;;27.66;56.99;99297.53;1712364;83;21059;-91
2022/07/03 08:10:19;;;;;;;7.95;5.50;;;;;;;27.83;56.45;99296.77;1741407;82;20993;-91
2022/07/03 08:12:46;;;;;;;11.80;5.58;;;;;;;27.99;56.74;99300.70;1741294;81;21035;-89
2022/07/03 08:15:13;;;;;;;8.65;5.10;;;;;;;28.13;56.19;99297.09;1686363;81;21076;-83
2022/07/03 08:17:40;;;;;;;7.20;5.25;;;;;;;28.22;55.65;99299.87;1663942;82;21126;-91
2022/07/03 08:20:08;;;;;;;11.65;5.40;;;;;;;28.24;55.37;99297.39;1655497;85;21106;-91
2022/07/03 08:22:35;;;;;;;10.40;6.12;;;;;;;28.34;55.51;99306.20;1655591;83;21071;-91
2022/07/03 08:25:03;;;;;;;10.55;6.03;;;;;;;28.38;54.51;99296.56;1667027;86;21069;-91
2022/07/03 08:27:30;;;;;;;10.55;5.90;;;;;;;28.35;53.81;99290.53;1698117;81;21050;-91
2022/07/03 08:29:57;;;;;;;8.98;5.75;;;;;;;28.43;52.99;99292.94;1747606;81;21026;-90
2022/07/03 08:32:24;;;;;;;10.15;5.45;;;;;;;28.49;52.60;99286.99;1747909;81;20939;-91
2022/07/03 08:34:51;;;;;;;10.05;5.78;;;;;;;28.59;53.76;99288.31;1747741;81;21051;-91
2022/07/03 08:37:18;;;;;;;11.08;5.30;;;;;;;28.65;53.27;99283.70;1747708;81;21030;-91
2022/07/03 08:39:45;;;;;;;9.30;5.97;;;;;;;28.75;53.37;99292.53;1747809;82;21108;-91
2022/07/03 08:42:15;;;;;;;9.63;5.72;;;;;;;28.85;53.26;99293.31;1747816;81;21034;-91
2022/07/03 08:44:44;;;;;;;9.18;6.05;;;;;;;29.01;53.11;99295.78;1747756;81;20968;-92
2022/07/03 08:47:13;;;;;;;9.90;5.67;;;;;;;29.12;53.13;99286.23;1715415;83;21060;-90
2022/07/03 08:49:42;;;;;;;9.90;6.28;;;;;;;29.21;52.81;99288.01;1701315;82;20932;-89
2022/07/03 08:52:10;;;;;;;9.55;6.17;;;;;;;29.28;51.58;99285.55;1740386;80;21059;-91
2022/07/03 08:54:39;;;;;;;11.43;6.50;;;;;;;29.40;52.49;99287.48;1763872;80;21111;-91
2022/07/03 08:57:06;;;;;;;8.65;5.92;;;;;;;29.51;52.47;99280.56;1783336;81;21092;-90
2022/07/03 08:59:38;;;;;;;11.28;6.22;;;;;;;29.63;52.33;99275.80;1781436;81;21025;-91
2022/07/03 09:02:06;;;;;;;10.25;6.85;;;;;;;29.71;51.79;99282.55;1783997;81;21018;-91
2022/07/03 09:04:35;;;;;;;8.83;6.65;;;;;;;29.64;51.49;99277.45;1783919;80;21010;-91
2022/07/03 09:07:03;;;;;;;12.03;5.60;;;;;;;29.67;51.75;99273.98;1771153;81;20966;-91
2022/07/03 09:09:32;;;;;;;11.65;6.33;;;;;;;29.76;51.39;99278.91;1753113;82;20954;-91
2022/07/03 09:11:59;;;;;;;13.62;6.67;;;;;;;29.85;51.25;99265.91;1727979;82;21010;-91
2022/07/03 09:14:26;;;;;;;10.70;6.30;;;;;;;30.01;50.82;99272.38;1753022;81;20914;-91
2022/07/03 09:16:54;;;;;;;11.05;6.45;;;;;;;30.08;49.85;99272.06;1752999;81;21060;-91
2022/07/03 09:19:47;;;;;;;13.70;7.22;;;;;;;30.13;49.91;99270.59;1783749;81;20969;-91
2022/07/03 09:22:27;;;;;;;11.43;6.87;;;;;;;29.98;49.73;99268.66;1753046;81;20962;-91
2022/07/03 09:25:11;;;;;;;10.20;6.62;;;;;;;29.95;50.36;99260.45;1768322;81;20973;-91
2022/07/03 09:27:51;;;;;;;14.90;6.95;;;;;;;30.01;50.22;99263.83;1783433;81;21065;-91
2022/07/03 09:30:18;;;;;;;12.82;6.78;;;;;;;30.07;49.31;99257.83;1783662;81;20998;-91
2022/07/03 09:32:49;;;;;;;14.38;7.17;;;;;;;30.02;49.28;99256.63;1752790;82;20989;-91
2022/07/03 09:35:27;;;;;;;10.78;6.60;;;;;;;30.09;49.58;99253.15;1757331;81;21046;-91
2022/07/03 09:37:58;;;;;;;13.08;6.70;;;;;;;30.18;49.23;99246.48;1734753;80;21062;-90
2022/07/03 09:40:27;;;;;;;17.55;6.62;;;;;;;30.38;49.62;99248.44;1734954;83;20994;-91
2022/07/03 09:43:06;;;;;;;11.33;6.60;;;;;;;30.55;48.91;99250.17;1734210;83;21010;-91
2022/07/03 09:46:00;;;;;;;11.38;6.55;;;;;;;30.68;48.49;99241.64;1699568;83;21083;-92
2022/07/03 09:48:31;;;;;;;12.68;6.97;;;;;;;30.77;48.36;99239.84;1703913;84;21007;-92
2022/07/03 09:51:15;;;;;;;10.70;6.97;;;;;;;30.88;48.20;99239.53;1703933;84;21054;-92
2022/07/03 09:53:55;;;;;;;11.70;6.97;;;;;;;30.98;47.56;99236.21;1703890;83;21007;-91
2022/07/03 09:56:26;;;;;;;10.93;6.37;;;;;;;31.06;47.49;99238.06;1703897;84;20987;-91
2022/07/03 09:59:15;;;;;;;10.10;6.58;;;;;;;31.22;46.89;99233.20;1662588;82;21074;-91
2022/07/03 10:01:44;;;;;;;10.78;6.03;;;;;;;31.28;46.98;99227.16;1670811;82;21068;-90
2022/07/03 10:04:23;;;;;;;15.28;6.78;;;;;;;31.31;46.64;99224.95;1653549;85;21046;-91
2022/07/03 10:07:00;;;;;;;17.07;7.30;;;;;;;31.40;46.22;99214.23;1623708;84;21033;-91
2022/07/03 10:09:34;;;;;;;12.05;6.35;;;;;;;31.50;46.00;99217.59;1685785;81;21081;-91
2022/07/03 10:12:04;;;;;;;9.43;6.83;;;;;;;31.53;46.22;99205.15;1635713;81;21135;-90
2022/07/03 10:14:33;;;;;;;11.03;6.75;;;;;;;31.66;45.82;99202.78;1660139;87;21130;-91
2022/07/03 10:17:01;;;;;;;11.97;6.67;;;;;;;31.83;45.26;99200.87;1655572;85;21016;-91
2022/07/03 10:19:30;;;;;;;12.75;7.10;;;;;;;31.75;45.30;99194.18;1662687;83;21099;-91
2022/07/03 10:22:03;;;;;;;13.98;6.62;;;;;;;31.84;45.37;99192.32;1700024;83;21055;-91
2022/07/03 10:24:31;;;;;;;11.35;6.47;;;;;;;31.91;44.53;99174.47;1700089;83;21009;-92
2022/07/03 10:26:59;;;;;;;12.68;6.87;;;;;;;31.99;44.69;99177.63;1700154;83;20985;-91
2022/07/03 10:29:28;;;;;;;10.80;6.65;;;;;;;32.14;44.66;99173.23;1699957;84;21059;-91
2022/07/03 10:31:57;;;;;;;9.60;6.55;;;;;;;32.28;44.23;99163.58;1703097;84;21024;-91
2022/07/03 10:34:26;;;;;;;9.13;6.03;;;;;;;32.44;44.49;99154.58;1671938;86;21014;-91
2022/07/03 10:37:03;;;;;;;11.38;6.05;;;;;;;32.66;44.22;99156.98;1685709;84;20987;-91
2022/07/03 10:39:49;;;;;;;15.75;5.92;;;;;;;32.89;43.81;99151.59;1737340;81;20955;-92
2022/07/03 10:45:12;;;;;;;12.03;5.65;;;;;;;33.25;42.46;99154.48;1693635;81;21048;-91
2022/07/03 10:47:47;;;;;;;12.90;5.92;;;;;;;33.28;41.45;99150.58;1708388;81;21082;-91
2022/07/03 10:50:23;;;;;;;12.85;7.10;;;;;;;33.49;41.72;99156.61;1711743;83;21055;-91
2022/07/03 10:52:51;;;;;;;10.80;6.05;;;;;;;33.67;40.91;99150.36;1711203;83;21000;-91
2022/07/03 10:55:19;;;;;;;11.73;6.30;;;;;;;33.78;40.33;99153.60;1672114;86;21078;-91
2022/07/03 10:58:07;;;;;;;10.60;5.60;;;;;;;33.87;40.57;99153.31;1666975;84;20999;-91
2022/07/03 11:00:54;;;;;;;11.20;6.42;;;;;;;34.07;39.02;99154.09;1719525;81;21077;-91
2022/07/03 11:03:52;;;;;;;14.50;6.47;;;;;;;34.03;38.10;99152.80;1745717;81;21026;-91
2022/07/03 11:06:19;;;;;;;15.03;5.80;;;;;;;33.94;38.62;99154.74;1687188;80;21012;-91
2022/07/03 11:09:04;;;;;;;13.65;6.95;;;;;;;34.13;39.04;99147.93;1727045;81;21091;-90
2022/07/03 11:11:57;;;;;;;10.75;5.62;;;;;;;34.08;38.06;99145.81;1691943;81;21094;-90
2022/07/03 11:14:29;;;;;;;10.40;6.42;;;;;;;34.09;38.95;99147.98;1681689;81;21108;-90
2022/07/03 11:31:38;;;;;;;10.50;6.60;;;;;;;35.28;37.73;99121.02;1637281;84;21078;-86
2022/07/03 11:34:05;;;;;;;10.68;6.97;;;;;;;35.25;37.31;99112.80;1674169;82;21185;-90
2022/07/03 11:39:59;;;;;;;13.83;6.60;;;;;;;35.29;37.01;99119.48;1698122;82;21078;31
2022/07/03 11:42:37;;;;;;;9.25;6.15;;;;;;;35.03;37.29;99120.92;1696689;81;21043;31
2022/07/03 11:45:05;;;;;;;11.40;6.47;;;;;;;34.84;36.96;99129.73;1617375;88;21129;-91
2022/07/03 11:47:36;;;;;;;13.65;6.17;;;;;;;34.66;37.22;99125.63;1671117;81;21101;-86
2022/07/03 11:50:06;;;;;;;10.48;6.15;;;;;;;34.44;37.52;99121.20;1636315;81;21103;-90
2022/07/03 11:52:33;;;;;;;12.55;6.62;;;;;;;34.25;37.80;99117.28;1653904;84;21122;-91
2022/07/03 11:55:00;;;;;;;10.18;6.55;;;;;;;34.06;37.97;99103.36;1653822;81;21031;-91
2022/07/03 11:57:27;;;;;;;10.85;6.67;;;;;;;33.89;38.22;99088.42;1707042;79;21114;-90
2022/07/03 11:59:58;;;;;;;10.43;6.67;;;;;;;33.81;38.51;99086.66;1747956;79;21002;-91
2022/07/03 12:02:25;;;;;;;9.68;6.40;;;;;;;33.68;38.64;99094.09;1718324;83;21022;-90
2022/07/03 12:04:54;;;;;;;11.45;6.28;;;;;;;33.54;38.77;99112.92;1736838;82;21043;-90
2022/07/03 12:07:21;;;;;;;12.82;5.87;;;;;;;33.38;39.13;99126.06;1746079;81;21003;-91
2022/07/03 12:09:50;;;;;;;11.33;6.58;;;;;;;33.11;39.22;99132.89;1745353;81;21047;-90
2022/07/03 12:12:19;;;;;;;13.13;6.55;;;;;;;32.85;39.59;99142.20;1747973;80;21040;-91
2022/07/03 12:14:48;;;;;;;11.95;6.55;;;;;;;32.42;40.90;99164.68;1694867;83;21112;-90
2022/07/03 12:17:18;;;;;;;14.23;6.85;;;;;;;31.84;42.64;99159.55;1688865;85;21091;-90
2022/07/03 12:19:51;;;;;;;11.30;5.50;;;;;;;31.44;43.58;99158.64;1685582;85;21562;-90
2022/07/03 12:22:31;;;;;;;10.75;5.05;;;;;;;31.08;43.12;99165.73;1686436;85;21032;-90
2022/07/03 12:25:05;;;;;;;12.03;4.83;;;;;;;30.63;43.06;99153.61;1700958;82;21115;-91
2022/07/03 12:27:35;;;;;;;9.15;4.70;;;;;;;29.81;44.37;99172.62;1770854;81;21067;-91
2022/07/03 12:30:04;;;;;;;9.38;4.53;;;;;;;29.35;45.35;99154.08;1771111;81;20970;-91
2022/07/03 12:32:31;;;;;;;7.67;4.62;;;;;;;28.89;46.31;99135.48;1771033;81;21069;-91
2022/07/03 12:34:58;;;;;;;9.05;4.85;;;;;;;28.52;47.57;99126.29;1771097;81;20967;-91
2022/07/03 12:37:46;;;;;;;10.88;5.05;;;;;;;28.39;48.03;99122.61;1772644;80;21057;-90
2022/07/03 12:40:14;;;;;;;10.00;5.30;;;;;;;28.28;49.01;99129.53;1771421;80;20945;-91